Time;durP1;ratioP1;P1;durP2;ratioP2;P2;SDS_P1;SDS_P2;PMS_P1;PMS_P2;Temp;Humidity;BMP_temperature;BMP_pressure;BME280_temperature;BME280_humidity;BME280_pressure;Samples;Min_cycle;Max_cycle;Signal;HPM_P1;HPM_P2
2022/04/26 03:37:12;;;;;;;13.85;6.25;;;6.40;93.10;;;;;;5070919;28;20112;-52
2022/04/26 03:39:39;;;;;;;15.23;6.15;;;6.40;93.00;;;;;;5071092;28;20060;-44
2022/04/26 03:42:05;;;;;;;19.88;7.03;;;6.30;93.00;;;;;;5070820;28;20310;-47
2022/04/26 03:44:31;;;;;;;17.60;7.05;;;6.40;93.20;;;;;;5070951;28;20107;-52
2022/04/26 03:46:57;;;;;;;19.30;7.18;;;6.30;93.40;;;;;;5070772;28;20606;-48
2022/04/26 03:49:23;;;;;;;16.30;7.50;;;6.30;93.40;;;;;;5069607;28;20104;-52
2022/04/26 03:51:52;;;;;;;18.48;6.72;;;6.30;93.50;;;;;;5070934;28;20063;-49
2022/04/26 03:54:24;;;;;;;17.42;7.43;;;6.30;93.50;;;;;;5070699;28;20632;-50
2022/04/26 03:56:50;;;;;;;16.13;7.60;;;6.30;93.60;;;;;;5070865;28;20081;-45
2022/04/26 03:59:16;;;;;;;17.35;7.15;;;6.30;93.80;;;;;;5070673;28;20483;-53
2022/04/26 04:01:42;;;;;;;15.32;7.10;;;6.30;93.90;;;;;;5069029;28;20166;-47
2022/04/26 04:04:07;;;;;;;18.58;8.27;;;6.30;93.80;;;;;;5070192;28;20103;-52
2022/04/26 04:06:33;;;;;;;17.58;8.15;;;6.40;93.90;;;;;;5070591;28;20484;-53
2022/04/26 04:08:59;;;;;;;23.38;9.07;;;6.40;94.10;;;;;;5070838;28;20105;-53
2022/04/26 04:11:25;;;;;;;21.10;8.40;;;6.40;94.00;;;;;;5070655;28;20059;-43
2022/04/26 04:13:50;;;;;;;17.27;8.07;;;6.50;94.00;;;;;;5070788;28;20116;-40
2022/04/26 04:16:16;;;;;;;24.17;8.70;;;6.40;94.00;;;;;;5070640;28;20025;-40
2022/04/26 04:21:26;;;;;;;21.45;8.05;;;6.40;94.00;;;;;;5070802;28;20028;-41
2022/04/26 04:23:52;;;;;;;16.77;8.55;;;6.40;94.00;;;;;;5070513;28;20033;-43
2022/04/26 04:26:17;;;;;;;19.15;8.77;;;6.40;94.20;;;;;;5070562;28;20028;-39
2022/04/26 04:28:43;;;;;;;22.15;9.23;;;6.40;94.10;;;;;;5070725;28;20021;-39
2022/04/26 04:31:10;;;;;;;17.98;8.15;;;6.40;94.10;;;;;;5070506;28;20024;-40
2022/04/26 04:33:36;;;;;;;22.65;7.68;;;6.40;94.10;;;;;;5070294;28;20094;-41
2022/04/26 04:36:02;;;;;;;17.13;7.70;;;6.40;94.10;;;;;;5070552;28;20040;-40
2022/04/26 04:38:28;;;;;;;18.50;7.43;;;6.40;94.20;;;;;;5069215;28;20070;-41
2022/04/26 04:40:54;;;;;;;22.67;8.45;;;6.40;94.20;;;;;;5070300;28;20379;-39
2022/04/26 04:43:20;;;;;;;16.73;8.38;;;6.40;94.20;;;;;;5070503;28;20021;-49
2022/04/26 04:45:47;;;;;;;20.23;7.68;;;6.40;94.30;;;;;;5070586;28;20063;-58
2022/04/26 04:48:13;;;;;;;20.83;8.73;;;6.40;94.30;;;;;;5070570;28;20531;-55
2022/04/26 04:50:39;;;;;;;20.42;7.85;;;6.40;94.30;;;;;;5073772;28;20494;-57
2022/04/26 04:53:05;;;;;;;16.40;7.43;;;6.40;94.30;;;;;;5073710;28;20037;-48
2022/04/26 04:55:31;;;;;;;22.85;7.65;;;6.40;94.30;;;;;;5073833;28;20031;-50
2022/04/26 04:57:57;;;;;;;19.75;7.97;;;6.40;94.20;;;;;;5073811;28;20025;-44
2022/04/26 05:00:23;;;;;;;18.75;7.28;;;6.40;94.10;;;;;;5073575;28;20077;-44
2022/04/26 05:02:48;;;;;;;24.23;7.78;;;6.40;94.10;;;;;;5073372;28;20043;-44
2022/04/26 05:05:14;;;;;;;17.02;7.50;;;6.50;94.00;;;;;;5073606;28;20029;-46
2022/04/26 05:07:40;;;;;;;14.35;7.35;;;6.50;94.00;;;;;;5073606;28;20031;-50
2022/04/26 05:10:06;;;;;;;17.33;7.35;;;6.50;93.90;;;;;;5073600;28;20032;-46
2022/04/26 05:12:33;;;;;;;20.60;7.10;;;6.50;93.80;;;;;;5073419;28;20029;-49
2022/04/26 05:14:59;;;;;;;16.38;7.47;;;6.60;93.80;;;;;;5073648;28;20032;-46
2022/04/26 05:17:27;;;;;;;18.08;7.22;;;6.60;93.80;;;;;;5073416;28;20489;-40
2022/04/26 05:19:53;;;;;;;22.67;7.07;;;6.60;93.70;;;;;;5071598;28;20048;-54
2022/04/26 05:22:19;;;;;;;17.80;7.85;;;6.70;93.60;;;;;;5071524;28;20487;-41
2022/04/26 05:24:53;;;;;;;20.52;7.32;;;6.70;93.60;;;;;;5072267;28;20038;-55
2022/04/26 05:27:34;;;;;;;17.15;6.47;;;6.70;93.50;;;;;;5072515;28;20024;-56
2022/04/26 05:29:59;;;;;;;18.17;7.10;;;6.80;93.50;;;;;;5071992;28;20033;-52
2022/04/26 05:32:27;;;;;;;13.98;6.43;;;6.80;93.40;;;;;;5073060;28;20024;-45
2022/04/26 05:35:00;;;;;;;14.38;6.50;;;6.80;93.40;;;;;;5073383;28;20071;-49
2022/04/26 05:37:27;;;;;;;16.13;6.88;;;6.90;93.30;;;;;;5073315;28;20409;-46
2022/04/26 05:39:55;;;;;;;15.15;6.75;;;6.90;93.20;;;;;;5073060;28;20029;-48
2022/04/26 05:42:21;;;;;;;12.57;6.63;;;7.00;93.30;;;;;;5072917;28;20025;-54
2022/04/26 05:44:46;;;;;;;13.30;7.20;;;7.00;93.10;;;;;;5072999;28;20123;-53
2022/04/26 05:47:12;;;;;;;13.52;6.40;;;7.10;93.10;;;;;;5072800;28;20024;-49
2022/04/26 05:49:38;;;;;;;17.55;7.28;;;7.10;92.90;;;;;;5071872;28;20028;-49
2022/04/26 05:52:04;;;;;;;20.33;6.97;;;7.20;92.80;;;;;;5070968;28;20028;-48
2022/04/26 05:54:30;;;;;;;18.67;6.85;;;7.30;92.80;;;;;;5069399;28;20064;-45
2022/04/26 05:56:56;;;;;;;17.83;6.10;;;7.30;92.70;;;;;;5068416;28;20056;-49
2022/04/26 05:59:22;;;;;;;15.52;6.50;;;7.40;92.50;;;;;;5069742;28;20028;-47
2022/04/26 06:01:49;;;;;;;16.30;6.18;;;7.50;92.50;;;;;;5070630;28;20024;-44
2022/04/26 06:04:15;;;;;;;16.75;6.35;;;7.60;92.20;;;;;;5068889;28;20020;-45
2022/04/26 06:06:41;;;;;;;12.93;5.85;;;7.60;92.10;;;;;;5070765;28;20025;-48
2022/04/26 06:09:07;;;;;;;16.98;6.95;;;7.70;91.90;;;;;;5066803;28;20113;-46
2022/04/26 06:11:33;;;;;;;12.90;5.63;;;7.80;91.80;;;;;;5065251;28;20452;-51
2022/04/26 06:14:01;;;;;;;17.85;6.22;;;7.90;91.70;;;;;;5071424;28;20473;-52
2022/04/26 06:16:28;;;;;;;14.73;6.00;;;8.20;91.60;;;;;;5071651;28;20494;-43
2022/04/26 06:18:54;;;;;;;18.38;5.40;;;9.00;90.50;;;;;;5071907;28;20123;-44
2022/04/26 06:21:20;;;;;;;10.05;4.50;;;10.30;87.10;;;;;;5070688;28;20021;-47
2022/04/26 06:23:46;;;;;;;9.27;4.55;;;11.80;80.50;;;;;;5070343;28;20177;-53
2022/04/26 06:26:12;;;;;;;10.18;3.78;;;13.20;74.20;;;;;;5071864;28;20025;-45
2022/04/26 06:28:37;;;;;;;12.05;4.20;;;14.40;68.10;;;;;;5071849;28;20095;-44
2022/04/26 06:31:03;;;;;;;12.40;3.72;;;15.50;64.20;;;;;;5070045;28;20440;-41
2022/04/26 06:33:29;;;;;;;9.55;3.55;;;16.40;60.40;;;;;;5070842;28;20052;-41
2022/04/26 06:35:54;;;;;;;9.15;3.22;;;17.70;57.60;;;;;;5071612;28;20031;-42
2022/04/26 06:38:22;;;;;;;8.40;3.20;;;18.70;55.90;;;;;;5071662;28;20025;-47
2022/04/26 06:40:48;;;;;;;6.93;3.33;;;19.50;50.00;;;;;;5071615;28;20025;-44
2022/04/26 06:43:14;;;;;;;7.85;3.22;;;20.00;49.50;;;;;;5071421;28;20475;-42
2022/04/26 06:45:40;;;;;;;6.43;2.83;;;20.00;47.90;;;;;;5071631;28;20024;-46
2022/04/26 06:48:10;;;;;;;11.65;3.33;;;20.20;48.30;;;;;;5071775;28;20035;-52
2022/04/26 06:50:37;;;;;;;10.57;3.35;;;20.60;47.70;;;;;;5071668;28;20033;-46
2022/04/26 06:53:03;;;;;;;8.73;2.97;;;21.30;45.70;;;;;;5071374;28;20475;-51
2022/04/26 06:55:29;;;;;;;7.38;3.03;;;21.60;44.40;;;;;;5071365;28;20077;-42
2022/04/26 06:57:54;;;;;;;7.50;2.45;;;22.00;43.80;;;;;;5069937;28;20493;-53
2022/04/26 07:00:20;;;;;;;9.73;2.97;;;22.50;41.30;;;;;;5071259;28;20029;-43
2022/04/26 07:02:45;;;;;;;7.45;2.95;;;22.90;40.90;;;;;;5071540;28;20039;-54
2022/04/26 07:05:12;;;;;;;7.88;2.80;;;22.80;41.10;;;;;;5071405;28;20380;-56
2022/04/26 07:07:41;;;;;;;10.52;3.15;;;22.90;41.20;;;;;;5070917;28;20055;-43
2022/04/26 07:10:08;;;;;;;9.55;3.15;;;22.80;38.70;;;;;;5071269;28;20021;-46
2022/04/26 07:12:33;;;;;;;11.27;2.72;;;21.60;41.20;;;;;;5070350;28;20039;-43
2022/04/26 07:14:59;;;;;;;8.32;2.63;;;21.60;42.90;;;;;;5071312;28;20025;-50
2022/04/26 07:17:25;;;;;;;8.02;2.60;;;22.40;41.30;;;;;;5070934;28;20029;-49
2022/04/26 07:19:51;;;;;;;6.03;2.35;;;23.00;39.40;;;;;;5070896;28;20057;-53
2022/04/26 07:22:17;;;;;;;8.15;2.60;;;23.80;39.40;;;;;;5070907;28;20502;-43
2022/04/26 07:24:44;;;;;;;6.45;2.10;;;24.10;38.10;;;;;;5070776;28;20028;-42
2022/04/26 07:27:10;;;;;;;6.78;2.28;;;24.50;37.50;;;;;;5070862;28;20029;-48
2022/04/26 07:29:36;;;;;;;7.93;2.10;;;24.40;36.40;;;;;;5070578;28;20111;-44
2022/04/26 07:32:03;;;;;;;6.18;2.42;;;24.70;38.60;;;;;;5070789;28;20462;-51
2022/04/26 07:34:29;;;;;;;5.95;2.22;;;25.10;35.20;;;;;;5070867;28;20033;-45
2022/04/26 07:37:04;;;;;;;6.60;2.22;;;25.00;34.00;;;;;;5070494;28;20494;-50
2022/04/26 07:39:33;;;;;;;5.65;1.95;;;25.60;36.20;;;;;;5068417;28;20025;-48
2022/04/26 07:42:01;;;;;;;6.68;2.17;;;25.80;33.70;;;;;;5070139;28;20465;-48
2022/04/26 07:44:27;;;;;;;8.10;2.85;;;26.10;32.80;;;;;;5069923;28;20021;-46
2022/04/26 07:46:54;;;;;;;6.60;1.90;;;25.10;33.20;;;;;;5070323;28;20036;-60
2022/04/26 07:49:21;;;;;;;5.65;1.70;;;25.90;32.60;;;;;;5070418;28;20013;-52
2022/04/26 07:51:47;;;;;;;10.55;2.15;;;25.20;32.00;;;;;;5069001;28;20031;-42
2022/04/26 07:54:13;;;;;;;5.07;1.67;;;25.40;32.50;;;;;;5070482;28;20170;-41
2022/04/26 07:56:39;;;;;;;4.47;1.48;;;25.80;30.90;;;;;;5070917;28;20025;-44
2022/04/26 07:59:05;;;;;;;6.88;1.88;;;26.70;33.00;;;;;;5071068;28;20025;-43
2022/04/26 08:01:31;;;;;;;6.05;1.50;;;26.90;30.20;;;;;;5069661;28;20058;-46
2022/04/26 08:03:58;;;;;;;3.83;1.50;;;27.40;30.00;;;;;;5070817;28;20074;-47
2022/04/26 08:06:24;;;;;;;3.33;1.20;;;27.00;28.90;;;;;;5070736;28;20021;-49
2022/04/26 08:08:50;;;;;;;7.07;1.30;;;26.50;28.00;;;;;;5070411;28;20029;-51
2022/04/26 08:11:16;;;;;;;4.95;1.70;;;25.70;27.10;;;;;;5067751;28;20050;-47
2022/04/26 08:13:43;;;;;;;3.60;1.40;;;24.70;28.40;;;;;;5070739;28;20041;-54
2022/04/26 08:16:09;;;;;;;5.60;1.40;;;25.70;28.60;;;;;;5070576;28;20021;-50
2022/04/26 08:18:36;;;;;;;2.85;1.40;;;26.10;28.60;;;;;;5070435;28;20119;-49
2022/04/26 08:21:03;;;;;;;3.72;1.50;;;26.20;28.30;;;;;;5070442;28;20078;-54
2022/04/26 08:23:28;;;;;;;6.50;1.60;;;26.70;26.80;;;;;;5073007;28;20067;-52
2022/04/26 08:28:38;;;;;;;4.97;1.33;;;26.50;28.00;;;;;;5074065;28;20039;-54
2022/04/26 08:31:06;;;;;;;3.58;1.20;;;27.30;27.90;;;;;;5074424;28;20036;-43
2022/04/26 08:33:35;;;;;;;4.57;1.50;;;26.20;27.80;;;;;;5074252;28;20139;-54
2022/04/26 08:36:01;;;;;;;6.13;1.60;;;26.20;27.20;;;;;;5074180;28;20127;-54
2022/04/26 08:38:27;;;;;;;3.75;1.30;;;24.60;26.90;;;;;;5073720;28;20500;-53
2022/04/26 08:40:53;;;;;;;3.25;1.27;;;25.30;27.10;;;;;;5073810;28;20020;-51
2022/04/26 08:43:18;;;;;;;3.10;1.40;;;25.30;28.20;;;;;;5074001;28;20476;-45
2022/04/26 08:45:46;;;;;;;3.33;1.60;;;26.40;28.30;;;;;;5074158;28;20116;-56
2022/04/26 08:51:00;;;;;;;6.10;1.52;;;27.50;24.80;;;;;;5074202;28;20036;-52
2022/04/26 08:53:28;;;;;;;5.15;1.63;;;27.00;26.20;;;;;;5073930;28;20158;-50
2022/04/26 08:55:56;;;;;;;3.13;1.38;;;26.10;25.20;;;;;;5071995;28;20028;-48
2022/04/26 08:58:23;;;;;;;3.90;1.13;;;25.80;27.20;;;;;;5073081;28;20035;-47
2022/04/26 09:01:08;;;;;;;2.25;1.15;;;25.40;27.60;;;;;;5072929;28;20039;-51
2022/04/26 09:03:39;;;;;;;4.15;1.50;;;26.60;26.40;;;;;;5070373;28;20032;-42
2022/04/26 09:06:11;;;;;;;4.20;1.40;;;27.00;28.30;;;;;;5071910;28;20031;-53
2022/04/26 09:08:37;;;;;;;5.25;1.70;;;25.80;24.50;;;;;;5073494;28;20071;-48
2022/04/26 09:11:05;;;;;;;13.50;1.77;;;26.50;26.90;;;;;;5072847;28;20028;-49
2022/04/26 09:13:40;;;;;;;4.00;1.50;;;27.60;27.50;;;;;;5069903;28;20059;-48
2022/04/26 09:16:16;;;;;;;5.72;1.45;;;27.70;27.40;;;;;;5073060;28;20025;-54
2022/04/26 09:18:51;;;;;;;4.50;1.63;;;28.30;26.30;;;;;;5072624;28;20115;-55
2022/04/26 09:21:17;;;;;;;4.78;1.45;;;27.80;27.90;;;;;;5072777;28;20035;-59
2022/04/26 09:23:44;;;;;;;3.45;1.30;;;27.70;25.30;;;;;;5071505;28;20020;-50
2022/04/26 09:26:14;;;;;;;2.80;1.15;;;28.50;25.40;;;;;;5072666;28;20067;-52
2022/04/26 09:28:43;;;;;;;3.80;1.27;;;28.40;25.30;;;;;;5072655;28;20017;-43
2022/04/26 09:31:22;;;;;;;4.72;1.30;;;28.40;24.20;;;;;;5072743;28;20027;-45
2022/04/26 09:33:57;;;;;;;4.03;1.60;;;27.30;23.80;;;;;;5070315;28;20036;-42
2022/04/26 09:36:31;;;;;;;3.65;1.30;;;27.30;25.50;;;;;;5071012;28;20028;-56
2022/04/26 09:38:57;;;;;;;3.92;1.20;;;27.30;26.30;;;;;;5072584;28;20029;-46
2022/04/26 09:41:25;;;;;;;3.55;1.50;;;27.00;26.80;;;;;;5072569;28;20021;-56
2022/04/26 09:44:06;;;;;;;3.25;1.38;;;26.00;25.20;;;;;;5071225;28;20452;-49
2022/04/26 09:46:40;;;;;;;3.92;1.50;;;24.90;27.10;;;;;;5072355;28;20017;-49
2022/04/26 09:49:10;;;;;;;4.50;1.50;;;24.30;25.70;;;;;;5072303;28;20100;-50
2022/04/26 09:51:37;;;;;;;2.65;1.30;;;24.00;26.50;;;;;;5072472;28;20020;-43
2022/04/26 09:54:06;;;;;;;3.47;1.13;;;24.40;27.00;;;;;;5071438;28;20489;-42
2022/04/26 09:56:33;;;;;;;3.67;1.50;;;24.70;27.80;;;;;;5071999;28;20463;-51
2022/04/26 09:59:01;;;;;;;4.97;1.30;;;26.00;27.60;;;;;;5072014;28;20025;-55
2022/04/26 10:01:34;;;;;;;3.33;1.30;;;26.30;24.30;;;;;;5070609;28;20017;-50
2022/04/26 10:04:04;;;;;;;3.78;1.30;;;26.30;27.10;;;;;;5072236;28;20028;-45
2022/04/26 10:06:38;;;;;;;4.57;1.65;;;27.50;25.30;;;;;;5071943;28;20482;-48
2022/04/26 10:09:05;;;;;;;2.50;1.20;;;28.00;25.20;;;;;;5069642;28;20241;-46
2022/04/26 10:11:31;;;;;;;3.20;1.25;;;28.20;24.10;;;;;;5071688;28;20016;-52
2022/04/26 10:14:00;;;;;;;3.13;1.80;;;27.50;24.30;;;;;;5071569;28;20035;-47
2022/04/26 10:16:26;;;;;;;5.15;1.90;;;27.00;25.50;;;;;;5072321;28;20053;-46
2022/04/26 10:19:01;;;;;;;3.85;2.20;;;26.40;24.30;;;;;;5071525;28;20044;-47
2022/04/26 10:21:27;;;;;;;4.57;2.13;;;25.80;24.60;;;;;;5071713;28;20028;-51
2022/04/26 10:23:56;;;;;;;7.90;1.75;;;26.40;23.80;;;;;;5072294;28;20021;-50
2022/04/26 10:26:25;;;;;;;4.68;1.77;;;27.40;26.30;;;;;;5071980;28;20040;-56
2022/04/26 10:28:59;;;;;;;3.60;1.60;;;26.70;25.30;;;;;;5071603;28;20029;-49
2022/04/26 10:31:37;;;;;;;3.97;1.70;;;27.50;25.80;;;;;;5071219;28;20024;-50
2022/04/26 10:34:29;;;;;;;3.80;1.73;;;27.50;24.60;;;;;;5071726;28;20044;-54
2022/04/26 10:37:06;;;;;;;2.97;1.50;;;27.50;25.40;;;;;;5071658;28;20048;-53
2022/04/26 10:39:40;;;;;;;4.75;1.60;;;26.40;23.80;;;;;;5071738;28;20526;-54
2022/04/26 10:42:26;;;;;;;4.00;2.17;;;26.00;26.20;;;;;;5071610;28;20023;-50
2022/04/26 10:44:58;;;;;;;4.22;1.63;;;26.70;26.80;;;;;;5071284;28;20110;-51
2022/04/26 10:47:25;;;;;;;3.70;1.98;;;27.40;24.30;;;;;;5070188;28;20396;-44
2022/04/26 10:49:54;;;;;;;3.08;1.50;;;27.30;25.20;;;;;;5071226;28;20408;-54
2022/04/26 10:52:22;;;;;;;2.67;1.30;;;26.90;25.10;;;;;;5071418;28;20456;-51
2022/04/26 10:55:03;;;;;;;6.70;1.80;;;26.80;25.10;;;;;;5071615;28;20143;-52
2022/04/26 10:57:33;;;;;;;4.57;1.50;;;26.60;25.60;;;;;;5071357;28;20039;-49
2022/04/26 11:00:07;;;;;;;4.03;1.50;;;26.80;25.00;;;;;;5071191;28;20027;-43
2022/04/26 11:02:40;;;;;;;2.65;1.42;;;26.00;25.00;;;;;;5071484;28;20108;-53
2022/04/26 11:05:27;;;;;;;3.90;1.40;;;26.00;24.90;;;;;;5071201;28;20032;-50
2022/04/26 11:07:53;;;;;;;3.17;1.77;;;26.20;26.70;;;;;;5071004;28;20021;-48
2022/04/26 11:10:25;;;;;;;4.75;1.67;;;25.20;24.60;;;;;;5071296;28;20028;-45
2022/04/26 11:12:51;;;;;;;4.22;1.55;;;24.80;26.70;;;;;;5071272;28;20037;-47
2022/04/26 11:15:22;;;;;;;4.18;1.70;;;24.80;25.40;;;;;;5071111;28;20437;-54
2022/04/26 11:17:49;;;;;;;3.03;1.50;;;24.50;26.00;;;;;;5071216;28;20025;-48
2022/04/26 11:20:18;;;;;;;2.38;1.40;;;24.20;26.60;;;;;;5070778;28;20071;-51
2022/04/26 11:27:59;;;;;;;2.45;1.60;;;24.30;25.50;;;;;;5070950;28;20028;-54
2022/04/26 11:28:30;;;;;;;2.95;1.48;;;24.80;24.20;;;;;;5071162;28;20073;-52
2022/04/26 11:30:57;;;;;;;2.20;1.27;;;24.80;24.90;;;;;;5070923;28;20024;-48
2022/04/26 11:33:25;;;;;;;2.85;1.20;;;24.70;27.10;;;;;;5070790;28;20526;-44
2022/04/26 11:35:56;;;;;;;1.77;1.30;;;24.60;23.90;;;;;;5070886;28;20028;-49
2022/04/26 11:38:23;;;;;;;2.63;1.50;;;23.60;24.30;;;;;;5070793;28;20082;-45
2022/04/26 11:41:00;;;;;;;3.28;1.40;;;22.80;25.30;;;;;;5070922;28;20052;-51
2022/04/26 11:43:28;;;;;;;2.60;1.40;;;22.20;26.20;;;;;;5070838;28;20025;-44
2022/04/26 11:45:55;;;;;;;2.90;1.43;;;21.70;28.50;;;;;;5070845;28;20025;-49
2022/04/26 11:48:29;;;;;;;4.95;1.48;;;21.50;26.70;;;;;;5071243;28;20622;-44
2022/04/26 11:50:56;;;;;;;3.28;1.38;;;20.60;28.90;;;;;;5070490;28;20036;-48
2022/04/26 11:53:26;;;;;;;5.75;1.60;;;21.40;29.10;;;;;;5069271;28;20071;-45
2022/04/26 11:55:54;;;;;;;2.33;1.30;;;21.50;27.70;;;;;;5070828;28;20100;-46
2022/04/26 11:58:21;;;;;;;3.20;1.45;;;22.30;29.50;;;;;;5072797;28;20107;-45
2022/04/26 12:01:11;;;;;;;3.40;1.50;;;22.40;28.90;;;;;;5074685;28;20029;-47
2022/04/26 12:03:49;;;;;;;7.68;1.48;;;23.30;31.00;;;;;;5074745;28;20027;-45
2022/04/26 12:06:20;;;;;;;2.40;1.20;;;23.00;26.40;;;;;;5074511;28;20028;-48
2022/04/26 12:09:07;;;;;;;2.45;1.10;;;22.80;27.90;;;;;;5074586;28;20033;-50
2022/04/26 12:11:38;;;;;;;2.45;1.25;;;22.60;25.60;;;;;;5073963;28;20025;-52
2022/04/26 12:14:08;;;;;;;2.58;1.40;;;22.40;27.20;;;;;;5074312;28;20041;-48
2022/04/26 12:16:44;;;;;;;1.88;1.33;;;21.90;26.60;;;;;;5074471;28;20032;-46
2022/04/26 12:19:11;;;;;;;3.53;1.50;;;21.90;27.40;;;;;;5074385;28;20074;-43
2022/04/26 12:21:57;;;;;;;2.10;1.20;;;21.60;28.50;;;;;;5074416;28;20028;-51
2022/04/26 12:24:26;;;;;;;3.53;1.63;;;21.80;28.30;;;;;;5074332;28;20484;-52
2022/04/26 12:26:52;;;;;;;;;;;22.00;29.20;;;;;;5074805;28;20032;-47
2022/04/26 12:29:17;;;;;;;2.75;1.65;;;22.30;27.60;;;;;;5074140;28;19908;-56
2022/04/26 12:31:46;;;;;;;3.38;1.60;;;23.10;28.20;;;;;;5072980;28;20021;-46
2022/04/26 12:34:19;;;;;;;2.67;1.40;;;23.70;26.60;;;;;;5074187;28;20036;-57
2022/04/26 12:36:56;;;;;;;3.30;1.60;;;23.60;25.70;;;;;;5074052;28;20655;-54
2022/04/26 12:39:25;;;;;;;2.90;1.80;;;23.30;26.00;;;;;;5073931;28;20541;-50
2022/04/26 12:41:53;;;;;;;3.97;1.80;;;22.90;26.70;;;;;;5073891;28;20078;-46
2022/04/26 12:44:19;;;;;;;5.78;1.90;;;22.10;26.90;;;;;;5073762;28;20020;-52
2022/04/26 12:46:46;;;;;;;4.78;1.55;;;21.20;27.10;;;;;;5073983;28;20064;-48
2022/04/26 12:51:57;;;;;;;4.68;1.77;;;22.50;28.60;;;;;;5074148;28;20043;-48
2022/04/26 12:54:23;;;;;;;6.20;1.67;;;22.00;28.90;;;;;;5073649;28;20041;-46
2022/04/26 12:56:59;;;;;;;4.97;1.67;;;21.50;28.30;;;;;;5073915;28;20028;-53
2022/04/26 12:59:34;;;;;;;3.08;1.60;;;21.40;28.20;;;;;;5073812;28;20029;-50
2022/04/26 13:02:00;;;;;;;3.53;1.70;;;21.20;30.00;;;;;;5073631;28;20048;-49
2022/04/26 13:04:26;;;;;;;3.35;1.45;;;21.00;28.90;;;;;;5073580;28;20067;-42
2022/04/26 13:06:53;;;;;;;4.85;1.63;;;20.90;31.20;;;;;;5073482;28;20040;-49
2022/04/26 13:09:18;;;;;;;3.08;1.80;;;21.00;33.20;;;;;;5072259;28;20195;-50
2022/04/26 13:11:45;;;;;;;4.97;1.65;;;20.90;31.60;;;;;;5072931;28;20111;-42
2022/04/26 13:14:11;;;;;;;4.10;2.05;;;20.90;30.80;;;;;;5072498;28;20522;-50
2022/04/26 13:16:36;;;;;;;5.53;1.50;;;20.60;29.70;;;;;;5073127;28;20013;-47
2022/04/26 13:19:02;;;;;;;3.35;1.63;;;20.20;29.60;;;;;;5072365;28;20406;-56
2022/04/26 13:21:28;;;;;;;4.03;1.48;;;20.20;32.20;;;;;;5072297;28;20054;-55
2022/04/26 13:23:57;;;;;;;3.58;1.73;;;19.80;30.80;;;;;;5072684;28;20107;-57
2022/04/26 13:26:23;;;;;;;2.67;1.50;;;19.50;32.20;;;;;;5072483;28;20033;-56
2022/04/26 13:28:49;;;;;;;3.92;1.50;;;19.10;32.30;;;;;;5072440;28;20044;-47
2022/04/26 13:31:14;;;;;;;3.88;1.60;;;19.10;32.50;;;;;;5072447;28;20418;-50
2022/04/26 13:33:44;;;;;;;3.13;1.90;;;18.90;32.20;;;;;;5072236;28;20029;-49
2022/04/26 13:36:10;;;;;;;4.78;2.10;;;18.40;33.10;;;;;;5072160;28;20059;-46
2022/04/26 13:38:35;;;;;;;3.00;1.80;;;18.10;32.40;;;;;;5072715;28;20036;-48
2022/04/26 13:41:01;;;;;;;2.03;1.38;;;17.90;35.10;;;;;;5072823;28;20031;-51
2022/04/26 13:43:27;;;;;;;2.53;1.20;;;17.90;32.10;;;;;;5072946;28;20104;-51
2022/04/26 13:45:53;;;;;;;3.78;1.58;;;17.70;31.80;;;;;;5073569;28;20028;-49
2022/04/26 13:48:19;;;;;;;2.80;1.40;;;17.60;31.50;;;;;;5071895;28;20377;-57
2022/04/26 13:50:44;;;;;;;2.95;1.50;;;17.60;33.90;;;;;;5072145;28;20025;-53
2022/04/26 13:53:10;;;;;;;2.88;1.67;;;17.70;33.40;;;;;;5071879;28;20120;-58
2022/04/26 13:55:35;;;;;;;2.80;1.65;;;17.90;31.80;;;;;;5071641;28;20035;-53
2022/04/26 13:58:03;;;;;;;4.80;1.40;;;18.00;30.70;;;;;;5071411;28;20044;-59
2022/04/26 14:00:30;;;;;;;2.45;1.38;;;17.70;31.50;;;;;;5072341;28;20055;-52
2022/04/26 14:02:56;;;;;;;3.97;1.60;;;17.90;32.90;;;;;;5071098;28;20159;-43
2022/04/26 14:05:23;;;;;;;2.88;1.67;;;18.00;30.00;;;;;;5078656;28;20115;-43
2022/04/26 14:07:49;;;;;;;3.75;1.70;;;17.50;29.90;;;;;;5070679;28;20028;-49
2022/04/26 14:10:16;;;;;;;3.30;1.50;;;17.40;32.60;;;;;;5071751;28;20051;-44
2022/04/26 14:12:41;;;;;;;2.88;1.60;;;17.50;32.60;;;;;;5071692;28;20048;-42
2022/04/26 14:23:34;;;;;;;2.65;1.50;;;17.10;31.30;;;;;;5068660;28;20059;-45
2022/04/26 14:26:00;;;;;;;2.78;1.48;;;17.20;32.20;;;;;;5088531;28;20056;-48
2022/04/26 14:28:26;;;;;;;3.25;1.50;;;16.90;31.90;;;;;;5088387;28;20040;-45
2022/04/26 14:30:51;;;;;;;3.72;1.40;;;17.00;33.30;;;;;;5071490;28;20094;-51
2022/04/26 14:33:18;;;;;;;2.63;1.55;;;16.90;33.10;;;;;;5080832;28;20032;-48
2022/04/26 14:35:44;;;;;;;6.05;1.55;;;16.90;33.40;;;;;;5074523;28;20056;-46
2022/04/26 14:38:10;;;;;;;3.28;1.77;;;17.10;34.00;;;;;;5071128;28;20024;-54
2022/04/26 14:40:37;;;;;;;5.13;2.40;;;17.20;32.90;;;;;;5070789;28;20091;-56
2022/04/26 14:43:04;;;;;;;4.60;1.77;;;17.00;33.00;;;;;;5070784;28;20430;-53
2022/04/26 14:45:32;;;;;;;3.20;1.80;;;17.10;33.00;;;;;;5071372;28;20024;-50
2022/04/26 14:48:00;;;;;;;6.78;2.22;;;17.10;33.20;;;;;;5071354;28;20031;-52
2022/04/26 14:50:26;;;;;;;4.43;1.88;;;17.20;33.80;;;;;;5079850;28;20514;-53
2022/04/26 14:52:53;;;;;;;2.30;1.58;;;17.50;35.50;;;;;;5091232;28;20074;-53
2022/04/26 14:55:18;;;;;;;5.60;2.22;;;17.50;33.80;;;;;;5091567;28;20036;-49
2022/04/26 14:57:44;;;;;;;2.63;1.80;;;17.60;34.40;;;;;;5075312;28;20618;-45
2022/04/26 15:00:10;;;;;;;3.80;1.90;;;17.70;35.10;;;;;;5070833;28;20043;-45
2022/04/26 15:02:39;;;;;;;3.25;1.80;;;18.00;36.30;;;;;;5071172;28;20050;-53
2022/04/26 15:05:13;;;;;;;5.95;1.98;;;18.30;34.80;;;;;;5075633;28;20083;-48
2022/04/26 15:10:24;;;;;;;2.60;1.80;;;18.90;33.20;;;;;;5067445;28;20088;-56
2022/04/26 15:18:21;;;;;;;2.75;1.75;;;18.30;32.20;;;;;;5077008;28;20090;-53
2022/04/26 15:20:50;;;;;;;4.10;2.15;;;18.10;32.70;;;;;;5069082;28;20044;-49
2022/04/26 15:23:17;;;;;;;4.50;1.88;;;17.70;32.60;;;;;;5070336;28;20036;-49
2022/04/26 15:25:50;;;;;;;3.53;2.00;;;17.50;34.20;;;;;;5070674;28;20028;-58
2022/04/26 15:28:17;;;;;;;5.10;1.92;;;17.40;35.70;;;;;;5070477;28;20123;-47
2022/04/26 15:30:43;;;;;;;4.00;1.88;;;17.40;36.10;;;;;;5070935;28;20039;-50
2022/04/26 15:33:09;;;;;;;3.53;2.00;;;17.50;36.10;;;;;;5068994;28;20024;-54
2022/04/26 15:35:36;;;;;;;5.35;1.65;;;17.50;35.10;;;;;;5069544;28;20032;-51
2022/04/26 15:38:03;;;;;;;4.40;1.90;;;17.40;36.00;;;;;;5069473;28;20536;-51
2022/04/26 15:40:28;;;;;;;4.13;1.90;;;17.30;35.50;;;;;;5067099;28;20029;-48
2022/04/26 15:42:54;;;;;;;3.08;1.90;;;17.40;36.10;;;;;;5069295;28;20029;-52
2022/04/26 15:45:20;;;;;;;3.47;1.95;;;17.50;36.40;;;;;;5067555;28;20029;-50
2022/04/26 15:47:45;;;;;;;4.80;2.00;;;17.50;36.10;;;;;;5068092;28;20112;-48
2022/04/26 15:50:11;;;;;;;3.75;1.75;;;17.70;36.10;;;;;;5069268;28;20486;-57
2022/04/26 15:52:38;;;;;;;4.25;2.17;;;17.90;36.50;;;;;;5068467;28;20040;-57
2022/04/26 15:55:04;;;;;;;2.70;1.73;;;17.70;33.40;;;;;;5069054;28;20032;-45
2022/04/26 15:57:30;;;;;;;3.47;2.10;;;17.40;34.50;;;;;;5070313;28;20054;-54
2022/04/26 15:59:56;;;;;;;4.03;2.00;;;17.10;35.40;;;;;;5070980;28;20032;-44
2022/04/26 16:02:23;;;;;;;6.38;2.45;;;17.20;35.90;;;;;;5069690;28;20661;-56
2022/04/26 16:04:49;;;;;;;4.20;2.25;;;17.20;35.70;;;;;;5070938;28;20029;-51
2022/04/26 16:07:15;;;;;;;3.47;2.10;;;17.20;36.70;;;;;;5070459;28;20032;-42
2022/04/26 16:20:37;;;;;;;3.83;2.10;;;16.90;35.70;;;;;;5067629;28;20637;-46
2022/04/26 16:23:05;;;;;;;3.25;2.10;;;17.00;36.20;;;;;;5069715;28;20028;-48
2022/04/26 16:25:31;;;;;;;3.25;1.80;;;17.00;36.00;;;;;;5068682;28;20364;-50
2022/04/26 16:28:00;;;;;;;7.90;2.53;;;17.00;36.30;;;;;;5068079;28;20024;-45
2022/04/26 16:30:30;;;;;;;3.30;2.20;;;16.80;36.50;;;;;;5069253;28;20031;-48
2022/04/26 16:33:01;;;;;;;5.95;2.10;;;16.80;36.00;;;;;;5068702;28;20074;-47
2022/04/26 16:35:27;;;;;;;5.40;2.15;;;16.70;37.10;;;;;;5068781;28;20147;-45
2022/04/26 16:37:55;;;;;;;4.97;2.20;;;16.70;37.80;;;;;;5066544;28;20013;-46
2022/04/26 16:40:21;;;;;;;4.03;2.30;;;16.60;39.80;;;;;;5066629;28;20040;-43
2022/04/26 16:42:47;;;;;;;4.80;2.20;;;16.60;39.60;;;;;;5069179;28;20020;-43
2022/04/26 16:45:13;;;;;;;3.67;2.20;;;16.50;39.70;;;;;;5073290;28;20024;-52
2022/04/26 16:47:39;;;;;;;9.38;2.80;;;16.40;40.80;;;;;;5072342;28;20098;-47
2022/04/26 16:50:06;;;;;;;6.85;2.40;;;16.30;40.10;;;;;;5072699;28;20106;-54
2022/04/26 16:52:33;;;;;;;5.32;2.35;;;16.20;40.70;;;;;;5069872;28;20033;-51
2022/04/26 16:54:58;;;;;;;6.05;2.50;;;16.20;40.60;;;;;;5072035;28;20037;-47
2022/04/26 16:57:26;;;;;;;6.03;2.60;;;16.10;41.60;;;;;;5072088;28;20029;-54
2022/04/26 16:59:53;;;;;;;4.50;2.40;;;16.00;41.10;;;;;;5073764;28;20020;-44
2022/04/26 17:02:19;;;;;;;5.55;2.80;;;15.90;41.60;;;;;;5071647;28;20039;-44
2022/04/26 17:04:45;;;;;;;6.28;2.80;;;15.80;41.30;;;;;;5071933;28;20092;-46
2022/04/26 17:07:12;;;;;;;4.90;2.55;;;15.50;42.00;;;;;;5072535;28;20103;-58
2022/04/26 17:09:38;;;;;;;4.35;2.38;;;15.40;42.20;;;;;;5072020;28;20513;-54